Time;durP1;ratioP1;P1;durP2;ratioP2;P2;SDS_P1;SDS_P2;PMS_P1;PMS_P2;Temp;Humidity;BMP_temperature;BMP_pressure;BME280_temperature;BME280_humidity;BME280_pressure;Samples;Min_cycle;Max_cycle;Signal;HPM_P1;HPM_P2
2023/07/02 00:01:37;;;;;;;1.63;1.53;;;;;;;;;;5032874;28;20559;-57
2023/07/02 00:04:08;;;;;;;1.57;1.47;;;;;;;;;;5032838;28;20543;-57
2023/07/02 00:06:40;;;;;;;2.50;1.57;;;;;;;;;;5032763;28;20453;-56
2023/07/02 00:09:07;;;;;;;2.83;1.80;;;;;;;;;;5032961;28;20854;-57
2023/07/02 00:11:34;;;;;;;2.10;2.00;;;;;;;;;;5032636;28;21074;-57
2023/07/02 00:14:01;;;;;;;1.90;1.80;;;;;;;;;;5036113;28;20457;-57
2023/07/02 00:16:28;;;;;;;3.53;1.70;;;;;;;;;;5036679;28;21047;-56
2023/07/02 00:18:54;;;;;;;2.27;1.30;;;;;;;;;;5036669;28;20545;-57
2023/07/02 00:21:27;;;;;;;1.67;1.57;;;;;;;;;;5036916;28;20485;-58
2023/07/02 00:23:56;;;;;;;1.50;1.30;;;;;;;;;;5036755;28;20485;-57
2023/07/02 00:26:23;;;;;;;2.13;2.03;;;;;;;;;;5036724;28;20489;-57
2023/07/02 00:28:50;;;;;;;3.37;1.37;;;;;;;;;;5036520;28;20537;-57
2023/07/02 00:31:17;;;;;;;1.73;1.60;;;;;;;;;;5036476;28;20863;-57
2023/07/02 00:33:44;;;;;;;1.70;1.60;;;;;;;;;;5036168;28;20551;-57
2023/07/02 00:36:14;;;;;;;1.73;1.63;;;;;;;;;;5036530;28;20525;-59
2023/07/02 00:38:42;;;;;;;2.30;1.50;;;;;;;;;;5036230;28;20495;-58
2023/07/02 00:41:10;;;;;;;1.70;1.60;;;;;;;;;;5036391;28;20449;-55
2023/07/02 00:43:39;;;;;;;1.93;1.53;;;;;;;;;;5036243;28;20485;-54
2023/07/02 00:46:06;;;;;;;1.87;1.77;;;;;;;;;;5036149;28;20491;-56
2023/07/02 00:48:33;;;;;;;1.60;1.50;;;;;;;;;;5036425;28;20448;-57
2023/07/02 00:51:00;;;;;;;1.80;1.70;;;;;;;;;;5036234;28;20551;-57
2023/07/02 00:53:27;;;;;;;1.70;1.60;;;;;;;;;;5036132;28;20542;-57
2023/07/02 00:55:55;;;;;;;1.60;1.50;;;;;;;;;;5035860;28;20559;-57
2023/07/02 00:58:22;;;;;;;1.70;1.60;;;;;;;;;;5035998;28;20536;-57
2023/07/02 01:00:49;;;;;;;1.70;1.60;;;;;;;;;;5035864;28;20558;-56
2023/07/02 01:03:16;;;;;;;1.70;1.60;;;;;;;;;;5035968;28;20579;-57
2023/07/02 01:05:43;;;;;;;3.57;1.60;;;;;;;;;;5035996;28;20552;-57
2023/07/02 01:08:11;;;;;;;2.00;1.90;;;;;;;;;;5035835;28;20542;-57
2023/07/02 01:10:39;;;;;;;2.43;2.00;;;;;;;;;;5035777;28;20449;-56
2023/07/02 01:13:10;;;;;;;1.50;1.40;;;;;;;;;;5035718;28;20963;-56
2023/07/02 01:15:38;;;;;;;1.90;1.80;;;;;;;;;;5035914;28;20449;-57
2023/07/02 01:18:05;;;;;;;1.80;1.70;;;;;;;;;;5035773;28;20448;-57
2023/07/02 01:20:34;;;;;;;2.07;1.73;;;;;;;;;;5035627;28;20547;-57
2023/07/02 01:23:03;;;;;;;1.87;1.77;;;;;;;;;;5035489;28;20911;-57
2023/07/02 01:25:30;;;;;;;1.77;1.67;;;;;;;;;;5034671;28;20479;-56
2023/07/02 01:27:58;;;;;;;2.17;1.80;;;;;;;;;;5035614;28;20538;-56
2023/07/02 01:30:25;;;;;;;1.90;1.80;;;;;;;;;;5035549;28;20488;-57
2023/07/02 01:32:52;;;;;;;1.77;1.67;;;;;;;;;;5035422;28;20457;-57
2023/07/02 01:35:19;;;;;;;2.30;2.20;;;;;;;;;;5035434;28;20854;-57
2023/07/02 01:37:48;;;;;;;2.90;2.17;;;;;;;;;;5035317;28;20541;-58
2023/07/02 01:40:15;;;;;;;2.30;2.20;;;;;;;;;;5035235;28;20802;-57
2023/07/02 01:42:42;;;;;;;4.30;2.37;;;;;;;;;;5035326;28;20556;-57
2023/07/02 01:45:10;;;;;;;2.87;2.67;;;;;;;;;;5035173;28;20548;-57
2023/07/02 01:47:37;;;;;;;2.87;2.67;;;;;;;;;;5035208;28;20528;-57
2023/07/02 01:50:05;;;;;;;2.67;2.47;;;;;;;;;;5035113;28;20560;-55
2023/07/02 01:52:33;;;;;;;2.37;2.27;;;;;;;;;;5034938;28;21002;-57
2023/07/02 01:55:01;;;;;;;4.50;2.40;;;;;;;;;;5035171;28;20509;-57
2023/07/02 01:57:30;;;;;;;3.93;2.27;;;;;;;;;;5034747;28;20559;-58
2023/07/02 01:59:57;;;;;;;2.67;2.47;;;;;;;;;;5035036;28;20453;-57
2023/07/02 02:02:24;;;;;;;2.67;2.57;;;;;;;;;;5034838;28;20540;-57
2023/07/02 02:04:51;;;;;;;2.73;2.53;;;;;;;;;;5034814;28;20512;-57
2023/07/02 02:07:17;;;;;;;2.80;2.60;;;;;;;;;;5034652;28;20555;-57
2023/07/02 02:09:44;;;;;;;7.03;3.30;;;;;;;;;;5034851;28;20480;-58
2023/07/02 02:12:14;;;;;;;3.07;2.87;;;;;;;;;;5034742;28;20856;-57
2023/07/02 02:14:41;;;;;;;2.97;2.77;;;;;;;;;;5034681;28;20828;-57
2023/07/02 02:17:08;;;;;;;3.00;2.70;;;;;;;;;;5034636;28;20467;-57
2023/07/02 02:19:34;;;;;;;3.13;2.93;;;;;;;;;;5034457;28;20816;-57
2023/07/02 02:22:01;;;;;;;2.73;2.53;;;;;;;;;;5034419;28;20537;-57
2023/07/02 02:24:28;;;;;;;2.70;2.60;;;;;;;;;;5034480;28;20583;-57
2023/07/02 02:26:56;;;;;;;3.33;3.13;;;;;;;;;;5034510;28;20618;-57
2023/07/02 02:29:24;;;;;;;3.63;3.47;;;;;;;;;;5034316;28;20540;-58
2023/07/02 02:31:51;;;;;;;3.93;3.63;;;;;;;;;;5034238;28;20545;-57
2023/07/02 02:34:18;;;;;;;4.13;3.83;;;;;;;;;;5034207;28;20889;-57
2023/07/02 02:36:47;;;;;;;3.70;3.50;;;;;;;;;;5033259;28;20493;-56
2023/07/02 02:39:14;;;;;;;3.30;3.10;;;;;;;;;;5034256;28;20481;-57
2023/07/02 02:41:41;;;;;;;4.47;3.70;;;;;;;;;;5034016;28;20464;-57
2023/07/02 02:44:08;;;;;;;4.13;3.73;;;;;;;;;;5033894;28;21070;-57
2023/07/02 02:46:36;;;;;;;4.27;3.93;;;;;;;;;;5033984;28;20547;-57
2023/07/02 02:49:03;;;;;;;3.70;3.40;;;;;;;;;;5033828;28;20463;-56
2023/07/02 02:51:30;;;;;;;3.67;3.47;;;;;;;;;;5034110;28;21012;-57
2023/07/02 02:53:57;;;;;;;3.10;3.00;;;;;;;;;;5033868;28;21080;-57
2023/07/02 02:56:24;;;;;;;10.63;5.13;;;;;;;;;;5033768;28;20568;-58
2023/07/02 02:58:51;;;;;;;4.23;3.90;;;;;;;;;;5033793;28;20868;-57
2023/07/02 03:01:18;;;;;;;3.40;3.20;;;;;;;;;;5033597;28;20492;-54
2023/07/02 03:03:46;;;;;;;3.57;3.37;;;;;;;;;;5033486;28;20571;-57
2023/07/02 03:06:14;;;;;;;3.67;3.37;;;;;;;;;;5033723;28;20540;-57
2023/07/02 03:08:41;;;;;;;3.40;3.20;;;;;;;;;;5033696;28;20818;-57
2023/07/02 03:11:08;;;;;;;4.10;3.40;;;;;;;;;;5033604;28;20936;-57
2023/07/02 03:13:35;;;;;;;3.33;3.03;;;;;;;;;;5033491;28;20543;-57
2023/07/02 03:16:02;;;;;;;3.20;3.00;;;;;;;;;;5033361;28;20510;-57
2023/07/02 03:18:29;;;;;;;2.30;2.20;;;;;;;;;;5033633;28;20536;-58
2023/07/02 03:20:57;;;;;;;3.97;3.00;;;;;;;;;;5033543;28;20536;-57
2023/07/02 03:23:24;;;;;;;3.30;2.90;;;;;;;;;;5033278;28;20515;-58
2023/07/02 03:25:51;;;;;;;3.03;2.73;;;;;;;;;;5033271;28;20450;-55
2023/07/02 03:28:18;;;;;;;2.20;2.10;;;;;;;;;;5033167;28;20544;-57
2023/07/02 03:30:44;;;;;;;3.10;2.90;;;;;;;;;;5033400;28;20496;-56
2023/07/02 03:33:11;;;;;;;2.57;2.20;;;;;;;;;;5033356;28;20540;-57
2023/07/02 03:35:38;;;;;;;2.43;2.30;;;;;;;;;;5033256;28;20547;-57
2023/07/02 03:38:07;;;;;;;3.20;3.00;;;;;;;;;;5033199;28;20488;-57
2023/07/02 03:40:33;;;;;;;3.57;2.83;;;;;;;;;;5033112;28;20455;-57
2023/07/02 03:43:00;;;;;;;5.50;3.17;;;;;;;;;;5032878;28;20530;-57
2023/07/02 03:45:27;;;;;;;3.00;2.70;;;;;;;;;;5032952;28;20522;-58
2023/07/02 03:47:54;;;;;;;2.60;2.50;;;;;;;;;;5032794;28;20449;-55
2023/07/02 03:50:22;;;;;;;3.00;2.70;;;;;;;;;;5033077;28;20909;-57
2023/07/02 03:52:49;;;;;;;2.30;2.20;;;;;;;;;;5032993;28;20452;-57
2023/07/02 03:55:17;;;;;;;4.87;2.70;;;;;;;;;;5032608;28;21044;-57
2023/07/02 03:57:45;;;;;;;2.27;2.07;;;;;;;;;;5032837;28;20444;-57
2023/07/02 04:00:12;;;;;;;2.83;2.63;;;;;;;;;;5032929;28;20458;-56
2023/07/02 04:02:39;;;;;;;2.77;2.57;;;;;;;;;;5032706;28;21016;-57
2023/07/02 04:05:06;;;;;;;3.00;2.50;;;;;;;;;;5032781;28;20980;-56
2023/07/02 04:07:33;;;;;;;2.90;2.60;;;;;;;;;;5032831;28;20822;-57
2023/07/02 04:10:00;;;;;;;4.07;2.67;;;;;;;;;;5032696;28;20987;-57
2023/07/02 04:12:29;;;;;;;2.83;2.37;;;;;;;;;;5032653;28;20468;-57
2023/07/02 04:14:56;;;;;;;7.60;3.30;;;;;;;;;;5032628;28;20547;-57
2023/07/02 04:17:23;;;;;;;6.00;2.70;;;;;;;;;;5032579;28;20555;-57
2023/07/02 04:19:50;;;;;;;4.00;2.90;;;;;;;;;;5032788;28;20544;-57
2023/07/02 04:22:18;;;;;;;4.23;2.10;;;;;;;;;;5032681;28;20536;-57
2023/07/02 04:24:45;;;;;;;3.43;2.70;;;;;;;;;;5032320;28;20536;-57
2023/07/02 04:27:13;;;;;;;2.93;2.73;;;;;;;;;;5032551;28;20936;-58
2023/07/02 04:29:41;;;;;;;4.03;2.63;;;;;;;;;;5032694;28;20874;-56
2023/07/02 04:32:08;;;;;;;3.00;2.73;;;;;;;;;;5032637;28;20450;-57
2023/07/02 04:34:36;;;;;;;6.10;2.77;;;;;;;;;;5032559;28;20539;-57
2023/07/02 04:37:03;;;;;;;2.37;2.27;;;;;;;;;;5032441;28;20515;-56
2023/07/02 04:39:30;;;;;;;2.40;2.20;;;;;;;;;;5032601;28;20493;-57
2023/07/02 04:41:57;;;;;;;2.10;1.90;;;;;;;;;;5032512;28;20513;-57
2023/07/02 04:44:29;;;;;;;2.50;2.30;;;;;;;;;;5032434;28;20532;-57
2023/07/02 04:46:58;;;;;;;2.30;2.07;;;;;;;;;;5032496;28;20454;-56
2023/07/02 04:49:25;;;;;;;2.47;2.30;;;;;;;;;;5032309;28;20486;-56
2023/07/02 04:51:53;;;;;;;2.40;2.30;;;;;;;;;;5032295;28;20454;-57
2023/07/02 04:54:20;;;;;;;2.60;2.43;;;;;;;;;;5032493;28;20505;-58
2023/07/02 04:56:47;;;;;;;3.20;2.53;;;;;;;;;;5032098;28;21055;-57
2023/07/02 04:59:14;;;;;;;2.10;2.00;;;;;;;;;;5032705;28;20461;-57
2023/07/02 05:01:41;;;;;;;3.23;2.93;;;;;;;;;;5035985;28;20484;-57
2023/07/02 05:04:10;;;;;;;2.43;1.90;;;;;;;;;;5035815;28;20848;-57
2023/07/02 05:06:37;;;;;;;2.70;2.50;;;;;;;;;;5036096;28;20468;-55
2023/07/02 05:09:04;;;;;;;3.40;2.20;;;;;;;;;;5035767;28;20957;-58
2023/07/02 05:11:31;;;;;;;3.17;2.40;;;;;;;;;;5035784;28;20452;-57
2023/07/02 05:13:58;;;;;;;5.73;2.37;;;;;;;;;;5035647;28;20948;-57
2023/07/02 05:16:25;;;;;;;3.30;2.10;;;;;;;;;;5035695;28;20633;-58
2023/07/02 05:18:52;;;;;;;3.37;2.27;;;;;;;;;;5035623;28;20456;-57
2023/07/02 05:21:20;;;;;;;2.80;2.37;;;;;;;;;;5035825;28;20530;-57
2023/07/02 05:23:48;;;;;;;2.27;2.10;;;;;;;;;;5035635;28;20480;-57
2023/07/02 05:26:15;;;;;;;2.00;1.90;;;;;;;;;;5035629;28;20541;-57
2023/07/02 05:28:42;;;;;;;2.60;2.40;;;;;;;;;;5035467;28;20456;-56
2023/07/02 05:31:09;;;;;;;1.80;1.70;;;;;;;;;;5035413;28;20454;-56
2023/07/02 05:33:36;;;;;;;3.17;2.17;;;;;;;;;;5035310;28;20539;-57
2023/07/02 05:36:03;;;;;;;2.33;2.23;;;;;;;;;;5035524;28;20879;-57
2023/07/02 05:38:31;;;;;;;2.00;1.90;;;;;;;;;;5035418;28;20450;-58
2023/07/02 05:40:58;;;;;;;4.33;2.27;;;;;;;;;;5035317;28;20544;-57
2023/07/02 05:43:25;;;;;;;4.80;1.80;;;;;;;;;;5035271;28;20454;-57
2023/07/02 05:45:53;;;;;;;2.10;2.00;;;;;;;;;;5034963;28;20564;-57
2023/07/02 05:48:20;;;;;;;2.70;1.90;;;;;;;;;;5035300;28;20457;-57
2023/07/02 05:50:46;;;;;;;2.17;2.07;;;;;;;;;;5035255;28;20540;-57
2023/07/02 05:53:13;;;;;;;2.47;1.97;;;;;;;;;;5035154;28;20536;-57
2023/07/02 05:55:43;;;;;;;3.07;2.40;;;;;;;;;;5034919;28;20478;-58
2023/07/02 05:58:10;;;;;;;2.57;2.43;;;;;;;;;;5034941;28;20536;-57
2023/07/02 06:00:38;;;;;;;3.40;1.90;;;;;;;;;;5034875;28;20540;-57
2023/07/02 06:03:05;;;;;;;2.17;1.97;;;;;;;;;;5034939;28;20445;-58
2023/07/02 06:05:32;;;;;;;2.70;2.50;;;;;;;;;;5034819;28;20481;-57
2023/07/02 06:07:59;;;;;;;3.10;2.13;;;;;;;;;;5034877;28;20607;-57
2023/07/02 06:10:26;;;;;;;2.43;2.00;;;;;;;;;;5034497;28;20544;-58
2023/07/02 06:12:54;;;;;;;1.83;1.70;;;;;;;;;;5034605;28;20540;-57
2023/07/02 06:15:21;;;;;;;2.53;2.30;;;;;;;;;;5034797;28;20544;-57
2023/07/02 06:17:48;;;;;;;4.07;2.40;;;;;;;;;;5034454;28;21012;-57
2023/07/02 06:20:15;;;;;;;2.47;2.30;;;;;;;;;;5034740;28;20474;-57
2023/07/02 06:22:43;;;;;;;3.00;2.20;;;;;;;;;;5034493;28;20548;-57
2023/07/02 06:25:10;;;;;;;2.63;2.07;;;;;;;;;;5034379;28;20572;-58
2023/07/02 06:27:37;;;;;;;2.50;2.10;;;;;;;;;;5034335;28;21028;-57
2023/07/02 06:30:06;;;;;;;2.70;2.50;;;;;;;;;;5034521;28;20549;-57
2023/07/02 06:32:33;;;;;;;2.70;2.50;;;;;;;;;;5034319;28;20461;-55
2023/07/02 06:35:00;;;;;;;2.33;1.97;;;;;;;;;;5034282;28;20541;-57
2023/07/02 06:37:27;;;;;;;2.30;1.97;;;;;;;;;;5034216;28;20533;-57
2023/07/02 06:39:55;;;;;;;6.30;2.17;;;;;;;;;;5034088;28;20541;-57
2023/07/02 06:42:22;;;;;;;3.30;2.43;;;;;;;;;;5033871;28;20449;-57
2023/07/02 06:44:49;;;;;;;3.50;2.07;;;;;;;;;;5033750;28;21012;-57
2023/07/02 06:47:17;;;;;;;2.50;2.27;;;;;;;;;;5034085;28;20534;-57
2023/07/02 06:49:44;;;;;;;2.33;2.10;;;;;;;;;;5033940;28;20545;-57
2023/07/02 06:52:12;;;;;;;2.43;2.23;;;;;;;;;;5033812;28;21031;-57
2023/07/02 06:54:40;;;;;;;3.53;2.30;;;;;;;;;;5033830;28;20887;-57
2023/07/02 06:57:07;;;;;;;2.93;2.60;;;;;;;;;;5033638;28;20807;-57
2023/07/02 06:59:34;;;;;;;2.00;1.90;;;;;;;;;;5033877;28;20450;-57
2023/07/02 07:02:00;;;;;;;2.13;1.90;;;;;;;;;;5033599;28;20511;-58
2023/07/02 07:04:29;;;;;;;5.83;2.00;;;;;;;;;;5033625;28;20481;-57
2023/07/02 07:06:56;;;;;;;3.23;1.83;;;;;;;;;;5033613;28;20472;-57
2023/07/02 07:09:23;;;;;;;2.57;2.37;;;;;;;;;;5033511;28;20545;-57
2023/07/02 07:11:49;;;;;;;2.20;2.00;;;;;;;;;;5033720;28;20540;-57
2023/07/02 07:14:16;;;;;;;4.73;2.33;;;;;;;;;;5033547;28;20536;-58
2023/07/02 07:16:43;;;;;;;2.23;2.03;;;;;;;;;;5033410;28;20968;-57
2023/07/02 07:19:10;;;;;;;2.00;1.80;;;;;;;;;;5033350;28;20541;-55
2023/07/02 07:21:40;;;;;;;2.10;2.00;;;;;;;;;;5033106;28;20481;-56
2023/07/02 07:24:07;;;;;;;2.70;2.50;;;;;;;;;;5032852;28;20457;-56
2023/07/02 07:26:34;;;;;;;1.90;1.77;;;;;;;;;;5033446;28;20548;-57
2023/07/02 07:29:02;;;;;;;2.50;2.30;;;;;;;;;;5033166;28;20949;-57
2023/07/02 07:31:29;;;;;;;2.13;2.00;;;;;;;;;;5033240;28;20453;-57
2023/07/02 07:33:56;;;;;;;4.10;2.83;;;;;;;;;;5033101;28;20881;-56
2023/07/02 07:36:22;;;;;;;2.57;2.37;;;;;;;;;;5032980;28;20549;-57
2023/07/02 07:38:51;;;;;;;2.33;2.00;;;;;;;;;;5033524;28;20870;-57
2023/07/02 07:41:18;;;;;;;3.63;2.17;;;;;;;;;;5033134;28;20548;-58
2023/07/02 07:43:44;;;;;;;3.57;2.50;;;;;;;;;;5033010;28;20456;-57
2023/07/02 07:46:11;;;;;;;4.70;2.50;;;;;;;;;;5032926;28;21024;-57
2023/07/02 07:48:38;;;;;;;2.60;2.40;;;;;;;;;;5033033;28;20540;-57
2023/07/02 07:51:05;;;;;;;2.40;2.20;;;;;;;;;;5032822;28;20544;-57
2023/07/02 07:53:32;;;;;;;2.23;1.80;;;;;;;;;;5033041;28;20540;-57
2023/07/02 07:56:00;;;;;;;4.80;2.43;;;;;;;;;;5032788;28;20596;-57
2023/07/02 07:58:27;;;;;;;2.77;2.53;;;;;;;;;;5032915;28;20456;-54
2023/07/02 08:00:54;;;;;;;2.03;1.90;;;;;;;;;;5032724;28;21040;-57
2023/07/02 08:03:21;;;;;;;4.07;2.30;;;;;;;;;;5032582;28;20480;-56
2023/07/02 08:05:48;;;;;;;2.50;2.30;;;;;;;;;;5032882;28;20580;-57
2023/07/02 08:08:15;;;;;;;2.40;2.20;;;;;;;;;;5032856;28;20620;-57
2023/07/02 08:10:42;;;;;;;2.17;2.07;;;;;;;;;;5032846;28;20537;-57
2023/07/02 08:13:10;;;;;;;2.13;2.03;;;;;;;;;;5032812;28;20441;-56
2023/07/02 08:15:37;;;;;;;4.00;2.27;;;;;;;;;;5032730;28;20541;-56
2023/07/02 08:18:06;;;;;;;1.97;1.87;;;;;;;;;;5032424;28;20540;-57
2023/07/02 08:20:33;;;;;;;4.10;1.90;;;;;;;;;;5032676;28;20464;-56
2023/07/02 08:23:00;;;;;;;2.17;2.07;;;;;;;;;;5032700;28;20545;-56
2023/07/02 08:25:27;;;;;;;2.00;1.80;;;;;;;;;;5032577;28;20556;-56
2023/07/02 08:27:54;;;;;;;2.50;2.10;;;;;;;;;;5032598;28;20460;-56
2023/07/02 08:30:22;;;;;;;2.87;2.57;;;;;;;;;;5032568;28;20541;-56
2023/07/02 08:32:49;;;;;;;2.90;2.07;;;;;;;;;;5032392;28;20453;-56
2023/07/02 08:35:16;;;;;;;2.50;2.30;;;;;;;;;;5036336;28;20866;-57
2023/07/02 08:37:43;;;;;;;3.17;2.07;;;;;;;;;;5036558;28;20548;-56
2023/07/02 08:40:17;;;;;;;2.40;2.20;;;;;;;;;;5036484;28;20892;-57
2023/07/02 08:42:44;;;;;;;4.30;2.83;;;;;;;;;;5036387;28;20450;-56
2023/07/02 08:45:11;;;;;;;3.43;2.80;;;;;;;;;;5036195;28;20477;-56
2023/07/02 08:47:39;;;;;;;2.77;2.57;;;;;;;;;;5036283;28;21029;-56
2023/07/02 08:50:07;;;;;;;4.90;2.57;;;;;;;;;;5036266;28;20544;-56
2023/07/02 08:52:34;;;;;;;3.10;2.60;;;;;;;;;;5036378;28;20544;-57
2023/07/02 08:55:01;;;;;;;3.13;2.90;;;;;;;;;;5036050;28;20920;-58
2023/07/02 08:57:28;;;;;;;2.80;2.60;;;;;;;;;;5035833;28;20516;-55
2023/07/02 08:59:55;;;;;;;3.53;3.23;;;;;;;;;;5035970;28;20802;-56
2023/07/02 09:02:31;;;;;;;2.87;2.60;;;;;;;;;;5036177;28;20536;-56
2023/07/02 09:05:01;;;;;;;4.60;3.50;;;;;;;;;;5035825;28;21048;-56
2023/07/02 09:07:28;;;;;;;3.50;2.83;;;;;;;;;;5035948;28;20512;-56
2023/07/02 09:09:55;;;;;;;3.63;3.33;;;;;;;;;;5035882;28;20544;-56
2023/07/02 09:12:26;;;;;;;4.40;2.93;;;;;;;;;;5035730;28;20450;-57
2023/07/02 09:14:57;;;;;;;3.40;2.77;;;;;;;;;;5035941;28;20456;-56
2023/07/02 09:17:28;;;;;;;4.03;3.20;;;;;;;;;;5035834;28;20476;-54
2023/07/02 09:19:55;;;;;;;3.50;2.70;;;;;;;;;;5035741;28;20802;-57
2023/07/02 09:22:24;;;;;;;3.20;3.00;;;;;;;;;;5035690;28;20453;-55
2023/07/02 09:24:54;;;;;;;4.00;3.60;;;;;;;;;;5035473;28;20877;-56
2023/07/02 09:27:21;;;;;;;5.27;3.40;;;;;;;;;;5035725;28;20461;-56
2023/07/02 09:29:51;;;;;;;2.87;2.67;;;;;;;;;;5035499;28;20495;-56
2023/07/02 09:32:25;;;;;;;3.97;2.70;;;;;;;;;;5035545;28;20461;-56
2023/07/02 09:34:52;;;;;;;4.23;2.97;;;;;;;;;;5035447;28;20449;-55
2023/07/02 09:37:19;;;;;;;3.57;3.27;;;;;;;;;;5035177;28;20531;-56
2023/07/02 09:39:51;;;;;;;3.60;3.30;;;;;;;;;;5035367;28;20528;-57
2023/07/02 09:42:19;;;;;;;3.47;3.17;;;;;;;;;;5035375;28;20507;-56
2023/07/02 09:44:47;;;;;;;4.73;3.17;;;;;;;;;;5035075;28;20856;-56
2023/07/02 09:47:14;;;;;;;3.20;3.00;;;;;;;;;;5034795;28;20482;-57
2023/07/02 09:49:42;;;;;;;4.57;3.30;;;;;;;;;;5035018;28;20974;-55
2023/07/02 09:52:10;;;;;;;3.57;3.27;;;;;;;;;;5035203;28;20541;-56
2023/07/02 09:54:37;;;;;;;3.83;3.47;;;;;;;;;;5035166;28;20544;-57
2023/07/02 09:57:06;;;;;;;3.63;3.20;;;;;;;;;;5034780;28;20519;-56
2023/07/02 09:59:33;;;;;;;5.70;3.20;;;;;;;;;;5034975;28;20540;-57
2023/07/02 10:02:00;;;;;;;4.03;2.70;;;;;;;;;;5034864;28;20544;-57
2023/07/02 10:04:27;;;;;;;4.60;3.20;;;;;;;;;;5034825;28;20577;-57
2023/07/02 10:06:55;;;;;;;4.60;3.70;;;;;;;;;;5034883;28;20826;-57
2023/07/02 10:09:23;;;;;;;4.07;3.67;;;;;;;;;;5034862;28;20568;-57
2023/07/02 10:11:50;;;;;;;3.33;3.10;;;;;;;;;;5034629;28;20983;-57
2023/07/02 10:14:18;;;;;;;8.80;3.83;;;;;;;;;;5034655;28;20457;-56
2023/07/02 10:16:57;;;;;;;3.53;3.23;;;;;;;;;;5034679;28;20549;-62
2023/07/02 10:19:24;;;;;;;3.43;3.13;;;;;;;;;;5034685;28;20540;-56
2023/07/02 10:22:02;;;;;;;5.03;3.47;;;;;;;;;;5034629;28;20544;-57
2023/07/02 10:24:29;;;;;;;4.37;3.67;;;;;;;;;;5034524;28;20461;-57
2023/07/02 10:26:56;;;;;;;4.33;3.93;;;;;;;;;;5034253;28;21012;-57
2023/07/02 10:29:25;;;;;;;4.37;3.67;;;;;;;;;;5034289;28;20540;-56
2023/07/02 10:31:53;;;;;;;7.83;3.90;;;;;;;;;;5034458;28;20544;-56
2023/07/02 10:34:29;;;;;;;8.93;4.40;;;;;;;;;;5034364;28;20450;-56
2023/07/02 10:36:56;;;;;;;6.10;4.87;;;;;;;;;;5034310;28;20489;-57
2023/07/02 10:39:23;;;;;;;6.07;4.10;;;;;;;;;;5034180;28;20456;-56
2023/07/02 10:41:50;;;;;;;4.33;3.93;;;;;;;;;;5033985;28;20457;-57
2023/07/02 10:44:17;;;;;;;7.13;4.70;;;;;;;;;;5034187;28;20537;-57
2023/07/02 10:46:46;;;;;;;5.87;4.00;;;;;;;;;;5034055;28;20574;-58
2023/07/02 10:49:13;;;;;;;5.20;3.90;;;;;;;;;;5034097;28;20895;-58
2023/07/02 10:51:40;;;;;;;6.30;4.23;;;;;;;;;;5034001;28;20456;-56
2023/07/02 10:54:07;;;;;;;7.73;3.80;;;;;;;;;;5033887;28;20540;-57
2023/07/02 10:56:34;;;;;;;6.80;4.57;;;;;;;;;;5033225;28;20576;-56
2023/07/02 10:59:01;;;;;;;4.67;4.10;;;;;;;;;;5033578;28;20545;-56
2023/07/02 11:01:28;;;;;;;4.20;3.80;;;;;;;;;;5033815;28;20454;-55
2023/07/02 11:04:01;;;;;;;7.00;4.13;;;;;;;;;;5033626;28;20456;-57
2023/07/02 11:06:28;;;;;;;6.37;4.83;;;;;;;;;;5033536;28;20539;-57
2023/07/02 11:08:56;;;;;;;5.27;4.77;;;;;;;;;;5033585;28;20540;-57
2023/07/02 11:11:24;;;;;;;6.53;4.50;;;;;;;;;;5033683;28;20544;-57
2023/07/02 11:13:51;;;;;;;5.30;4.60;;;;;;;;;;5033628;28;20453;-57
2023/07/02 11:16:19;;;;;;;6.37;4.43;;;;;;;;;;5033510;28;20508;-57
2023/07/02 11:18:46;;;;;;;6.90;4.30;;;;;;;;;;5033490;28;20836;-57
2023/07/02 11:21:14;;;;;;;5.30;4.77;;;;;;;;;;5033468;28;20442;-57
2023/07/02 11:23:41;;;;;;;7.17;4.97;;;;;;;;;;5033365;28;20532;-57
2023/07/02 11:26:08;;;;;;;6.63;4.63;;;;;;;;;;5033349;28;20568;-56
2023/07/02 11:28:35;;;;;;;9.13;5.00;;;;;;;;;;5033165;28;20541;-57
2023/07/02 11:31:03;;;;;;;5.77;4.47;;;;;;;;;;5033342;28;20460;-57
2023/07/02 11:33:36;;;;;;;6.70;4.90;;;;;;;;;;5033159;28;20853;-57
2023/07/02 11:36:04;;;;;;;6.07;5.47;;;;;;;;;;5033204;28;20541;-56
2023/07/02 11:38:32;;;;;;;10.03;5.57;;;;;;;;;;5033347;28;20540;-57
2023/07/02 11:40:59;;;;;;;6.57;4.63;;;;;;;;;;5033180;28;20544;-57
2023/07/02 11:43:26;;;;;;;9.73;5.53;;;;;;;;;;5033091;28;20453;-57
2023/07/02 11:45:53;;;;;;;9.70;5.23;;;;;;;;;;5033752;28;20470;-60
2023/07/02 11:48:20;;;;;;;9.83;4.93;;;;;;;;;;5033041;28;20504;-57
2023/07/02 11:50:47;;;;;;;9.90;5.40;;;;;;;;;;5032806;28;20450;-56
2023/07/02 11:53:14;;;;;;;6.43;4.90;;;;;;;;;;5032852;28;20541;-56
2023/07/02 11:55:42;;;;;;;11.60;5.00;;;;;;;;;;5033210;28;20557;-57
2023/07/02 11:58:09;;;;;;;7.63;5.10;;;;;;;;;;5033082;28;20545;-57
2023/07/02 12:00:36;;;;;;;7.83;4.50;;;;;;;;;;5032837;28;20549;-56
2023/07/02 12:03:04;;;;;;;12.00;5.10;;;;;;;;;;5032694;28;20537;-57
2023/07/02 12:05:31;;;;;;;6.17;5.10;;;;;;;;;;5032698;28;20960;-57
2023/07/02 12:07:57;;;;;;;7.30;5.13;;;;;;;;;;5032549;28;20486;-56
2023/07/02 12:10:24;;;;;;;7.27;5.10;;;;;;;;;;5032766;28;20540;-57
2023/07/02 12:12:53;;;;;;;9.47;5.03;;;;;;;;;;5032774;28;20540;-57
2023/07/02 12:15:20;;;;;;;7.63;4.70;;;;;;;;;;5032739;28;20545;-57
2023/07/02 12:17:46;;;;;;;8.93;5.30;;;;;;;;;;5032865;28;20493;-57
2023/07/02 12:20:13;;;;;;;7.10;5.73;;;;;;;;;;5032557;28;20540;-57
2023/07/02 12:22:40;;;;;;;8.80;5.40;;;;;;;;;;5032700;28;20518;-56
2023/07/02 12:25:08;;;;;;;11.07;5.93;;;;;;;;;;5032665;28;20450;-57
2023/07/02 12:27:34;;;;;;;10.27;5.30;;;;;;;;;;5032499;28;20485;-56
2023/07/02 12:30:03;;;;;;;8.40;5.50;;;;;;;;;;5032495;28;20544;-56
2023/07/02 12:32:30;;;;;;;7.50;5.83;;;;;;;;;;5032697;28;20547;-57
2023/07/02 12:34:57;;;;;;;6.97;5.40;;;;;;;;;;5032467;28;20787;-56
2023/07/02 12:37:24;;;;;;;11.20;4.90;;;;;;;;;;5032467;28;20536;-56
2023/07/02 12:39:51;;;;;;;10.07;5.23;;;;;;;;;;5032519;28;20456;-56
2023/07/02 12:42:18;;;;;;;7.47;5.23;;;;;;;;;;5032526;28;20488;-56
2023/07/02 12:44:45;;;;;;;8.73;4.87;;;;;;;;;;5032362;28;20552;-56
2023/07/02 12:47:13;;;;;;;7.80;5.00;;;;;;;;;;5032479;28;20485;-56
2023/07/02 12:49:40;;;;;;;8.20;4.93;;;;;;;;;;5032599;28;21001;-56
2023/07/02 12:52:07;;;;;;;14.27;5.87;;;;;;;;;;5032492;28;20536;-56
2023/07/02 12:54:34;;;;;;;6.13;5.40;;;;;;;;;;5032394;28;20537;-56
2023/07/02 12:57:01;;;;;;;7.97;5.10;;;;;;;;;;5032191;28;20477;-56
2023/07/02 12:59:27;;;;;;;6.70;5.10;;;;;;;;;;5032348;28;21017;-57
2023/07/02 13:01:54;;;;;;;9.30;5.77;;;;;;;;;;5032546;28;20540;-56
2023/07/02 13:04:23;;;;;;;7.70;5.10;;;;;;;;;;5032357;28;20678;-57
2023/07/02 13:06:49;;;;;;;9.23;5.20;;;;;;;;;;5032176;28;20568;-55
2023/07/02 13:09:16;;;;;;;8.30;5.40;;;;;;;;;;5032226;28;20537;-56
2023/07/02 13:11:43;;;;;;;8.80;5.30;;;;;;;;;;5032035;28;20449;-57
2023/07/02 13:14:10;;;;;;;6.23;5.40;;;;;;;;;;5032148;28;21157;-56
2023/07/02 13:16:37;;;;;;;7.50;5.53;;;;;;;;;;5031989;28;20544;-56
2023/07/02 13:19:04;;;;;;;8.03;4.87;;;;;;;;;;5032215;28;20537;-57
2023/07/02 13:21:32;;;;;;;7.87;5.30;;;;;;;;;;5034203;28;21004;-56
2023/07/02 13:23:59;;;;;;;8.00;5.57;;;;;;;;;;5035645;28;20455;-57
2023/07/02 13:26:26;;;;;;;8.70;4.90;;;;;;;;;;5035367;28;20476;-56
2023/07/02 13:28:53;;;;;;;16.27;5.70;;;;;;;;;;5035660;28;20535;-56
2023/07/02 13:31:20;;;;;;;8.77;5.03;;;;;;;;;;5035291;28;20540;-56
2023/07/02 13:33:49;;;;;;;8.50;5.30;;;;;;;;;;5035458;28;20485;-56
2023/07/02 13:36:16;;;;;;;7.27;4.70;;;;;;;;;;5035338;28;20500;-56
2023/07/02 13:38:44;;;;;;;10.83;5.97;;;;;;;;;;5035110;28;20545;-55
2023/07/02 13:41:11;;;;;;;6.57;5.30;;;;;;;;;;5035389;28;20540;-56
2023/07/02 13:43:38;;;;;;;6.47;4.67;;;;;;;;;;5035343;28;20454;-56
2023/07/02 13:46:05;;;;;;;7.90;5.47;;;;;;;;;;5035298;28;20453;-55
2023/07/02 13:48:32;;;;;;;7.00;5.47;;;;;;;;;;5035164;28;20885;-55
2023/07/02 13:50:59;;;;;;;8.27;5.23;;;;;;;;;;5035112;28;20537;-56
2023/07/02 13:53:26;;;;;;;10.27;5.10;;;;;;;;;;5035002;28;21039;-56
2023/07/02 13:55:54;;;;;;;9.77;5.30;;;;;;;;;;5034993;28;20564;-56
2023/07/02 13:58:21;;;;;;;11.20;5.10;;;;;;;;;;5035162;28;20560;-56
2023/07/02 14:00:49;;;;;;;7.40;5.00;;;;;;;;;;5035031;28;20549;-57
2023/07/02 14:03:16;;;;;;;7.60;4.80;;;;;;;;;;5034932;28;20544;-56
2023/07/02 14:05:43;;;;;;;9.80;5.50;;;;;;;;;;5034793;28;20544;-56
2023/07/02 14:08:10;;;;;;;6.00;5.10;;;;;;;;;;5034576;28;20587;-56
2023/07/02 14:10:37;;;;;;;6.10;5.50;;;;;;;;;;5034985;28;20565;-56
2023/07/02 14:13:04;;;;;;;7.53;4.60;;;;;;;;;;5034911;28;20540;-56
2023/07/02 14:15:31;;;;;;;9.07;6.00;;;;;;;;;;5034745;28;20441;-56
2023/07/02 14:18:00;;;;;;;5.20;4.53;;;;;;;;;;5034608;28;20540;-57
2023/07/02 14:20:27;;;;;;;9.90;5.77;;;;;;;;;;5034419;28;20446;-57
2023/07/02 14:22:53;;;;;;;6.17;4.57;;;;;;;;;;5034702;28;20452;-57
2023/07/02 14:25:20;;;;;;;6.43;5.20;;;;;;;;;;5034598;28;20450;-57
2023/07/02 14:27:47;;;;;;;10.10;5.50;;;;;;;;;;5034354;28;20581;-55
2023/07/02 14:30:14;;;;;;;7.80;5.00;;;;;;;;;;5034397;28;20458;-56
2023/07/02 14:32:43;;;;;;;9.33;6.17;;;;;;;;;;5034171;28;20544;-56
2023/07/02 14:35:12;;;;;;;8.43;5.23;;;;;;;;;;5034143;28;20449;-56
2023/07/02 14:37:39;;;;;;;7.70;4.93;;;;;;;;;;5034117;28;20553;-56
2023/07/02 14:40:06;;;;;;;10.07;5.70;;;;;;;;;;5034156;28;20489;-56
2023/07/02 14:42:33;;;;;;;6.57;5.00;;;;;;;;;;5034103;28;20540;-56
2023/07/02 14:45:00;;;;;;;9.90;5.40;;;;;;;;;;5034143;28;20448;-57